Bluff Park, Alabama
Current Conditions -  °F | °C
As of 2:53 PM on Monday 24 Nov 2014 (Local Time) from KEET Reporting Station
Clear Clear  
Wind Chill: 66°   Ceiling: Unl
Heat Index: 66°   Visibility: 10mi
Dew Point: 46°   Wind: 10mph
Humidity: 48%   Direction: 300°WNW
Pressure: 29.87"   Gusts: NA
Location:  33.3655°N, 86.7846°W
Report Text: KEET 242053Z AUTO 30009KT 10SM CLR 19/08 A2987 RMK AO2 SLP111 T01890078 53016
Loading
Personal Weather Stations






























Interactive Weather Map New forecast layout! Learn more

10-Day Weather Forecast

Advertisements
Track Severe Weather on mobile